createdAt,value
2022-07-31T00:00:40.410Z,95679.66
2022-07-31T00:03:42.170Z,95670.88
2022-07-31T00:06:43.984Z,95671.31
2022-07-31T00:09:53.376Z,95670.19
2022-07-31T00:12:57.682Z,95665.41
2022-07-31T00:15:59.333Z,95666.00
2022-07-31T00:19:01.106Z,95664.47
2022-07-31T00:22:02.759Z,95669.41
2022-07-31T00:25:04.810Z,95665.22
2022-07-31T00:28:07.831Z,95672.44
2022-07-31T00:31:10.004Z,95674.31
2022-07-31T00:34:11.658Z,95673.97
2022-07-31T00:37:13.271Z,95672.16
2022-07-31T00:40:16.432Z,95668.59
2022-07-31T00:43:19.464Z,95657.94
2022-07-31T00:46:21.084Z,95669.44
2022-07-31T00:49:25.083Z,95674.38
2022-07-31T00:52:26.806Z,95667.06
2022-07-31T00:55:28.439Z,95667.47
2022-07-31T00:58:31.441Z,95669.00
2022-07-31T01:01:33.084Z,95671.19
2022-07-31T01:04:35.213Z,95674.31
2022-07-31T01:07:37.306Z,95680.56
2022-07-31T01:10:42.668Z,95671.66
2022-07-31T01:13:48.426Z,95681.59
2022-07-31T01:16:51.359Z,95675.63
2022-07-31T01:19:53.433Z,95680.97
2022-07-31T01:23:08.558Z,95667.06
2022-07-31T01:26:19.555Z,95678.50
2022-07-31T01:29:25.912Z,95676.81
2022-07-31T01:32:29.018Z,95677.25
2022-07-31T01:35:36.368Z,95673.66
2022-07-31T01:38:43.839Z,95678.16
2022-07-31T01:41:48.378Z,95690.53
2022-07-31T01:44:53.120Z,95681.78
2022-07-31T01:47:55.744Z,95693.63
2022-07-31T01:50:58.445Z,95694.63
2022-07-31T01:54:00.993Z,95698.06
2022-07-31T01:57:03.576Z,95697.97
2022-07-31T02:00:33.579Z,95707.56
2022-07-31T02:03:42.706Z,95708.66
2022-07-31T02:06:47.462Z,95701.44
2022-07-31T02:09:52.493Z,95696.97
2022-07-31T02:13:00.963Z,95703.47
2022-07-31T02:16:04.966Z,95701.81
2022-07-31T02:19:07.849Z,95702.38
2022-07-31T02:22:09.532Z,95699.47
2022-07-31T02:25:11.482Z,95695.22
2022-07-31T02:28:15.700Z,95687.16
2022-07-31T02:31:19.891Z,95684.31
2022-07-31T02:34:21.954Z,95681.81
2022-07-31T02:37:31.406Z,95674.34
2022-07-31T02:40:33.282Z,95685.81
2022-07-31T02:43:35.557Z,95679.53
2022-07-31T02:46:39.020Z,95676.69
2022-07-31T02:49:41.297Z,95676.34
2022-07-31T02:52:43.128Z,95671.63
2022-07-31T02:55:45.304Z,95667.88
2022-07-31T02:58:46.980Z,95670.69
2022-07-31T03:01:50.001Z,95678.31
2022-07-31T03:04:51.645Z,95677.56
2022-07-31T03:07:53.283Z,95678.06
2022-07-31T03:10:55.036Z,95679.47
2022-07-31T03:13:58.500Z,95674.09
2022-07-31T03:17:01.640Z,95663.13
2022-07-31T03:20:03.493Z,95662.03
2022-07-31T03:23:05.374Z,95666.69
2022-07-31T03:26:07.546Z,95672.84
2022-07-31T03:29:39.292Z,95669.66
2022-07-31T03:32:32.163Z,95673.72
2022-07-31T03:35:33.888Z,95671.41
2022-07-31T03:38:43.357Z,95674.13
2022-07-31T03:41:47.924Z,95678.56
2022-07-31T03:44:49.892Z,95672.50
2022-07-31T03:47:53.082Z,95677.13
2022-07-31T03:50:55.190Z,95675.78
2022-07-31T03:53:56.960Z,95669.50
2022-07-31T03:56:58.890Z,95677.09
2022-07-31T04:00:00.840Z,95677.13
2022-07-31T04:03:07.033Z,95678.44
2022-07-31T04:06:09.954Z,95683.31
2022-07-31T04:09:18.682Z,95679.94
2022-07-31T04:12:20.842Z,95686.25
2022-07-31T04:15:22.516Z,95687.00
2022-07-31T04:18:25.646Z,95683.69
2022-07-31T04:21:27.372Z,95685.03
2022-07-31T04:24:29.046Z,95692.03
2022-07-31T04:27:30.728Z,95696.25
2022-07-31T04:30:32.386Z,95691.47
2022-07-31T04:33:35.491Z,95692.56
2022-07-31T04:36:49.004Z,95694.19
2022-07-31T04:39:50.665Z,95693.47
2022-07-31T04:42:52.274Z,95697.72
2022-07-31T04:45:53.892Z,95693.13
2022-07-31T04:48:57.067Z,95703.69
2022-07-31T04:51:58.931Z,95699.03
2022-07-31T04:55:00.670Z,95694.34
2022-07-31T04:58:02.292Z,95700.03
2022-07-31T05:01:03.924Z,95700.34
2022-07-31T05:04:07.437Z,95698.06
2022-07-31T05:07:09.115Z,95698.75
2022-07-31T05:10:10.803Z,95688.94
2022-07-31T05:13:12.454Z,95697.00
2022-07-31T05:16:17.772Z,95695.53
2022-07-31T05:19:20.802Z,95683.56
2022-07-31T05:22:22.522Z,95693.75
2022-07-31T05:25:24.225Z,95694.88
2022-07-31T05:28:30.102Z,95693.22
2022-07-31T05:31:32.041Z,95697.97
2022-07-31T05:34:35.104Z,95699.75
2022-07-31T05:37:36.725Z,95700.84
2022-07-31T05:40:38.441Z,95693.91
2022-07-31T05:43:40.074Z,95695.91
2022-07-31T05:46:41.801Z,95699.84
2022-07-31T05:49:44.829Z,95699.69
2022-07-31T05:52:46.505Z,95694.88
2022-07-31T05:55:48.769Z,95704.91
2022-07-31T05:58:50.515Z,95701.97
2022-07-31T06:01:52.221Z,95712.19
2022-07-31T06:04:55.250Z,95707.72
2022-07-31T06:07:57.230Z,95723.00
2022-07-31T06:10:59.273Z,95719.06
2022-07-31T06:14:00.957Z,95714.16
2022-07-31T06:17:04.506Z,95715.63
2022-07-31T06:20:10.941Z,95721.19
2022-07-31T06:23:23.094Z,95714.94
2022-07-31T06:26:31.271Z,95720.53
2022-07-31T06:29:41.675Z,95718.38
2022-07-31T06:32:44.123Z,95722.13
2022-07-31T06:35:47.495Z,95721.13
2022-07-31T06:38:49.160Z,95720.47
2022-07-31T06:41:50.894Z,95720.16
2022-07-31T06:44:52.957Z,95718.78
2022-07-31T06:47:54.623Z,95718.38
2022-07-31T06:54:19.769Z,95730.19
2022-07-31T06:57:28.465Z,95735.84
2022-07-31T07:00:30.227Z,95725.16
2022-07-31T07:03:31.861Z,95729.78
2022-07-31T07:06:34.886Z,95731.94
2022-07-31T07:09:36.567Z,95731.75
2022-07-31T07:12:38.266Z,95733.16
2022-07-31T07:15:40.022Z,95728.28
2022-07-31T07:18:41.870Z,95731.44
2022-07-31T07:21:44.928Z,95732.38
2022-07-31T07:24:46.625Z,95727.31
2022-07-31T07:27:48.307Z,95732.22
2022-07-31T07:30:50.296Z,95719.53
2022-07-31T07:33:51.935Z,95719.28
2022-07-31T07:36:54.984Z,95721.06
2022-07-31T07:39:56.784Z,95715.66
2022-07-31T07:43:02.854Z,95718.53
2022-07-31T07:46:04.896Z,95709.56
2022-07-31T07:49:06.630Z,95706.03
2022-07-31T07:52:09.744Z,95704.28
2022-07-31T07:55:11.445Z,95701.78
2022-07-31T07:58:13.121Z,95700.94
2022-07-31T08:01:15.108Z,95703.03
2022-07-31T08:04:16.809Z,95702.53
2022-07-31T08:07:41.766Z,95707.69
2022-07-31T08:10:43.989Z,95701.69
2022-07-31T08:13:50.220Z,95706.16
2022-07-31T08:16:52.828Z,95704.66
2022-07-31T08:19:54.522Z,95702.56
2022-07-31T08:22:57.566Z,95702.16
2022-07-31T08:25:59.314Z,95706.75
2022-07-31T08:29:01.099Z,95703.59
2022-07-31T08:32:09.352Z,95701.94
2022-07-31T08:35:11.045Z,95705.66
2022-07-31T08:38:14.054Z,95712.56
2022-07-31T08:41:15.687Z,95700.97
2022-07-31T08:44:17.379Z,95707.75
2022-07-31T08:47:28.837Z,95701.19
2022-07-31T08:50:30.910Z,95703.34
2022-07-31T08:53:36.655Z,95700.19
2022-07-31T08:56:38.848Z,95690.41
2022-07-31T08:59:40.657Z,95696.34
2022-07-31T09:02:42.349Z,95696.34
2022-07-31T09:05:44.022Z,95701.84
2022-07-31T09:08:47.041Z,95697.09
2022-07-31T09:11:48.971Z,95699.19
2022-07-31T09:14:50.617Z,95701.88
2022-07-31T09:17:54.108Z,95694.63
2022-07-31T09:20:56.773Z,95702.06
2022-07-31T09:23:59.758Z,95699.31
2022-07-31T09:27:02.515Z,95688.66
2022-07-31T09:30:13.634Z,95690.47
2022-07-31T09:33:16.639Z,95685.97
2022-07-31T09:36:22.282Z,95677.34
2022-07-31T09:39:27.084Z,95686.66
2022-07-31T09:42:35.580Z,95681.28
2022-07-31T09:45:37.261Z,95676.28
2022-07-31T09:48:50.841Z,95675.91
2022-07-31T09:51:52.816Z,95669.63
2022-07-31T09:55:15.608Z,95671.09
2022-07-31T09:58:18.613Z,95672.19
2022-07-31T10:01:20.654Z,95669.00
2022-07-31T10:04:22.596Z,95665.72
2022-07-31T10:07:32.591Z,95662.06
2022-07-31T10:10:36.233Z,95676.88
2022-07-31T10:13:40.551Z,95656.94
2022-07-31T10:16:47.053Z,95664.97
2022-07-31T10:19:49.577Z,95664.63
2022-07-31T10:22:54.237Z,95658.72
2022-07-31T10:25:59.084Z,95655.63
2022-07-31T10:29:00.765Z,95660.09
2022-07-31T10:32:02.541Z,95653.66
2022-07-31T10:35:04.909Z,95668.63
2022-07-31T10:38:11.123Z,95648.22
2022-07-31T10:41:17.588Z,95648.56
2022-07-31T10:44:23.114Z,95649.66
2022-07-31T10:47:24.805Z,95647.25
2022-07-31T10:50:27.204Z,95660.31
2022-07-31T10:53:50.519Z,95641.81
2022-07-31T10:56:51.907Z,95653.94
2022-07-31T10:59:53.659Z,95640.59
2022-07-31T11:02:55.310Z,95637.28
2022-07-31T11:06:01.675Z,95643.88
2022-07-31T11:09:04.516Z,95637.50
2022-07-31T11:12:18.186Z,95639.59
2022-07-31T11:15:21.466Z,95627.38
2022-07-31T11:18:26.656Z,95631.22
2022-07-31T11:21:40.037Z,95626.66
2022-07-31T11:24:41.917Z,95624.22
2022-07-31T11:27:44.958Z,95614.59
2022-07-31T11:30:50.372Z,95620.44
2022-07-31T11:33:51.993Z,95630.06
2022-07-31T11:36:53.700Z,95632.81
2022-07-31T11:39:56.120Z,95636.16
2022-07-31T11:43:24.788Z,95621.94
2022-07-31T11:46:24.607Z,95638.59
2022-07-31T11:49:47.883Z,95627.13
2022-07-31T11:52:47.894Z,95632.03
2022-07-31T11:55:50.812Z,95620.84
2022-07-31T11:58:54.751Z,95610.00
2022-07-31T12:02:02.332Z,95623.63
2022-07-31T12:05:04.139Z,95611.88
2022-07-31T12:08:06.375Z,95612.91
2022-07-31T12:11:08.357Z,95615.75
2022-07-31T12:14:11.376Z,95615.03
2022-07-31T12:17:19.511Z,95605.03
2022-07-31T12:20:34.477Z,95603.97
2022-07-31T12:23:42.075Z,95597.34
2022-07-31T12:26:48.864Z,95605.59
2022-07-31T12:29:51.874Z,95596.41
2022-07-31T12:33:03.882Z,95595.09
2022-07-31T12:36:11.557Z,95594.59
2022-07-31T12:39:13.256Z,95599.19
2022-07-31T12:42:21.369Z,95596.81
2022-07-31T12:45:35.313Z,95601.72
2022-07-31T12:48:41.075Z,95580.22
2022-07-31T12:51:47.293Z,95575.44
2022-07-31T12:54:49.222Z,95586.72
2022-07-31T12:57:52.178Z,95579.78
2022-07-31T13:00:55.504Z,95590.88
2022-07-31T13:03:57.173Z,95584.38
2022-07-31T13:06:59.061Z,95580.44
2022-07-31T13:10:14.793Z,95575.84
2022-07-31T13:13:22.024Z,95571.91
2022-07-31T13:16:25.087Z,95577.44
2022-07-31T13:19:26.742Z,95564.00
2022-07-31T13:22:28.376Z,95566.13
2022-07-31T13:25:30.042Z,95562.63
2022-07-31T13:28:31.769Z,95563.84
2022-07-31T13:31:34.761Z,95555.72
2022-07-31T13:34:36.443Z,95566.47
2022-07-31T13:37:38.093Z,95562.66
2022-07-31T13:40:39.758Z,95554.84
2022-07-31T13:44:00.238Z,95554.41
2022-07-31T13:47:04.049Z,95550.38
2022-07-31T13:50:06.128Z,95542.25
2022-07-31T13:53:08.061Z,95546.47
2022-07-31T13:56:10.078Z,95545.38
2022-07-31T13:59:12.142Z,95552.72
2022-07-31T14:02:15.634Z,95543.59
2022-07-31T14:05:17.737Z,95541.28
2022-07-31T14:08:33.021Z,95532.56
2022-07-31T14:11:43.914Z,95547.69
2022-07-31T14:14:47.457Z,95542.63
2022-07-31T14:17:50.496Z,95542.34
2022-07-31T14:20:52.217Z,95546.19
2022-07-31T14:23:53.988Z,95539.75
2022-07-31T14:26:55.630Z,95544.03
2022-07-31T14:29:57.296Z,95538.22
2022-07-31T14:33:00.315Z,95542.19
2022-07-31T14:36:02.117Z,95540.06
2022-07-31T14:39:03.930Z,95542.13
2022-07-31T14:42:06.101Z,95542.06
2022-07-31T14:45:08.350Z,95535.75
2022-07-31T14:48:11.472Z,95533.88
2022-07-31T14:51:18.045Z,95537.63
2022-07-31T14:54:19.774Z,95532.28
2022-07-31T14:57:22.409Z,95535.38
2022-07-31T15:00:24.389Z,95531.38
2022-07-31T15:03:27.415Z,95531.59
2022-07-31T15:06:43.891Z,95531.16
2022-07-31T15:09:50.821Z,95529.81
2022-07-31T15:12:52.485Z,95533.31
2022-07-31T15:15:54.247Z,95522.06
2022-07-31T15:18:57.290Z,95535.25
2022-07-31T15:22:10.275Z,95522.03
2022-07-31T15:25:18.459Z,95521.19
2022-07-31T15:28:20.246Z,95522.22
2022-07-31T15:31:22.909Z,95522.78
2022-07-31T15:34:25.949Z,95514.38
2022-07-31T15:37:27.616Z,95519.72
2022-07-31T15:40:29.707Z,95510.09
2022-07-31T15:43:31.388Z,95509.63
2022-07-31T15:46:33.043Z,95505.56
2022-07-31T15:49:44.113Z,95503.53
2022-07-31T15:52:46.301Z,95503.34
2022-07-31T15:55:47.935Z,95500.91
2022-07-31T15:58:53.714Z,95500.41
2022-07-31T16:01:55.676Z,95496.72
2022-07-31T16:05:11.274Z,95498.00
2022-07-31T16:08:30.445Z,95487.50
2022-07-31T16:12:04.619Z,95482.38
2022-07-31T16:14:57.219Z,95481.59
2022-07-31T16:17:58.874Z,95477.63
2022-07-31T16:21:01.889Z,95481.34
2022-07-31T16:24:03.879Z,95474.59
2022-07-31T16:27:05.852Z,95472.41
2022-07-31T16:30:08.232Z,95472.22
2022-07-31T16:33:09.938Z,95469.75
2022-07-31T16:36:12.935Z,95473.28
2022-07-31T16:39:20.277Z,95469.50
2022-07-31T16:42:22.256Z,95471.25
2022-07-31T16:45:23.971Z,95458.44
2022-07-31T16:48:25.709Z,95464.22
2022-07-31T16:51:28.834Z,95458.59
2022-07-31T16:54:30.620Z,95459.00
2022-07-31T16:57:32.234Z,95450.75
2022-07-31T17:00:34.123Z,95445.59
2022-07-31T17:04:01.735Z,95456.75
2022-07-31T17:06:59.337Z,95455.13
2022-07-31T17:10:00.985Z,95461.00
2022-07-31T17:13:02.607Z,95455.38
2022-07-31T17:16:04.668Z,95457.69
2022-07-31T17:19:06.332Z,95459.34
2022-07-31T17:22:11.247Z,95456.03
2022-07-31T17:25:13.359Z,95452.47
2022-07-31T17:28:15.525Z,95456.50
2022-07-31T17:31:17.306Z,95460.00
2022-07-31T17:34:19.067Z,95456.88
2022-07-31T17:37:22.151Z,95471.91
2022-07-31T17:40:42.525Z,95464.66
2022-07-31T17:43:50.789Z,95471.41
2022-07-31T17:46:55.171Z,95463.56
2022-07-31T17:49:59.406Z,95473.19
2022-07-31T17:53:02.918Z,95471.41
2022-07-31T17:56:04.844Z,95484.72
2022-07-31T17:59:06.478Z,95473.97
2022-07-31T18:02:08.659Z,95478.06
2022-07-31T18:05:10.663Z,95491.66
2022-07-31T18:08:13.935Z,95478.28
2022-07-31T18:11:15.622Z,95483.88
2022-07-31T18:14:18.265Z,95479.31
2022-07-31T18:17:20.816Z,95479.97
2022-07-31T18:20:22.489Z,95486.13
2022-07-31T18:23:25.595Z,95481.72
2022-07-31T18:26:27.298Z,95478.22
2022-07-31T18:29:28.948Z,95477.25
2022-07-31T18:32:30.752Z,95482.78
2022-07-31T18:35:32.549Z,95489.22
2022-07-31T18:38:35.578Z,95491.28
2022-07-31T18:41:37.244Z,95492.31
2022-07-31T18:44:38.900Z,95490.34
2022-07-31T18:47:40.655Z,95490.31
2022-07-31T18:50:58.845Z,95488.38
2022-07-31T18:54:05.542Z,95491.69
2022-07-31T18:57:07.594Z,95491.22
2022-07-31T19:00:09.808Z,95494.13
2022-07-31T19:03:11.468Z,95505.31
2022-07-31T19:06:13.189Z,95511.94
2022-07-31T19:09:16.211Z,95506.78
2022-07-31T19:12:17.863Z,95501.91
2022-07-31T19:15:19.596Z,95514.00
2022-07-31T19:18:27.946Z,95519.50
2022-07-31T19:21:41.944Z,95514.00
2022-07-31T19:24:45.988Z,95515.06
2022-07-31T19:27:49.374Z,95514.16
2022-07-31T19:30:52.231Z,95514.28
2022-07-31T19:33:54.107Z,95523.47
2022-07-31T19:36:55.790Z,95519.94
2022-07-31T19:39:58.822Z,95512.47
2022-07-31T19:43:00.516Z,95514.75
2022-07-31T19:46:12.019Z,95523.16
2022-07-31T19:49:14.296Z,95521.72
2022-07-31T19:52:16.045Z,95524.31
2022-07-31T19:55:19.115Z,95524.47
2022-07-31T19:58:21.046Z,95521.56
2022-07-31T20:01:22.942Z,95514.69
2022-07-31T20:04:25.177Z,95515.94
2022-07-31T20:07:32.239Z,95510.72
2022-07-31T20:10:35.873Z,95508.72
2022-07-31T20:13:37.537Z,95505.81
2022-07-31T20:16:39.648Z,95503.69
2022-07-31T20:20:02.777Z,95511.47
2022-07-31T20:23:02.952Z,95505.06
2022-07-31T20:26:06.594Z,95506.28
2022-07-31T20:29:08.264Z,95510.53
2022-07-31T20:32:09.912Z,95509.16
2022-07-31T20:35:33.114Z,95514.22
2022-07-31T20:38:35.254Z,95505.97
2022-07-31T20:41:38.307Z,95507.47
2022-07-31T20:44:40.038Z,95505.19
2022-07-31T20:47:41.707Z,95503.50
2022-07-31T20:50:43.490Z,95506.25
2022-07-31T20:53:49.650Z,95504.88
2022-07-31T20:56:52.679Z,95499.09
2022-07-31T20:59:54.293Z,95491.63
2022-07-31T21:02:55.998Z,95500.94
2022-07-31T21:05:57.658Z,95498.78
2022-07-31T21:08:59.375Z,95499.22
2022-07-31T21:12:08.469Z,95502.44
2022-07-31T21:15:41.022Z,95492.81
2022-07-31T21:18:34.678Z,95498.78
2022-07-31T21:21:37.159Z,95487.31
2022-07-31T21:24:39.002Z,95480.91
2022-07-31T21:27:42.635Z,95480.75
2022-07-31T21:30:44.472Z,95481.66
2022-07-31T21:33:46.560Z,95488.53
2022-07-31T21:36:48.309Z,95485.03
2022-07-31T21:39:50.189Z,95486.69
2022-07-31T21:42:57.123Z,95485.47
2022-07-31T21:46:02.323Z,95494.31
2022-07-31T21:49:04.249Z,95500.41
2022-07-31T21:52:06.842Z,95492.13
2022-07-31T21:55:09.232Z,95488.16
2022-07-31T21:58:14.095Z,95487.41
2022-07-31T22:01:15.891Z,95492.44
2022-07-31T22:04:17.757Z,95492.56
2022-07-31T22:07:19.439Z,95496.53
2022-07-31T22:10:21.175Z,95493.75
2022-07-31T22:13:24.255Z,95498.81
2022-07-31T22:16:25.945Z,95499.91
2022-07-31T22:19:27.905Z,95498.56
2022-07-31T22:22:30.023Z,95488.28
2022-07-31T22:25:31.914Z,95488.75
2022-07-31T22:28:35.211Z,95489.50
2022-07-31T22:31:37.026Z,95486.25
2022-07-31T22:34:38.660Z,95490.28
2022-07-31T22:37:40.755Z,95483.66
2022-07-31T22:40:43.987Z,95478.72
2022-07-31T22:44:13.154Z,95473.44
2022-07-31T22:47:09.458Z,95469.78
2022-07-31T22:50:12.226Z,95467.75
2022-07-31T22:53:13.901Z,95469.56
2022-07-31T22:56:15.624Z,95472.03
2022-07-31T22:59:18.650Z,95467.84
2022-07-31T23:02:21.475Z,95468.47
2022-07-31T23:05:23.399Z,95464.50
2022-07-31T23:08:25.053Z,95467.44
2022-07-31T23:11:26.704Z,95465.63
2022-07-31T23:14:30.005Z,95464.28
2022-07-31T23:17:31.646Z,95458.34
2022-07-31T23:20:33.330Z,95472.22
2022-07-31T23:23:35.258Z,95462.06
2022-07-31T23:26:36.960Z,95457.09
2022-07-31T23:29:41.372Z,95459.81
2022-07-31T23:32:43.365Z,95455.06
2022-07-31T23:35:44.986Z,95457.47
2022-07-31T23:38:46.734Z,95450.31
2022-07-31T23:41:48.365Z,95447.72
2022-07-31T23:44:51.534Z,95445.88
2022-07-31T23:47:53.194Z,95447.41
2022-07-31T23:51:00.555Z,95438.09
2022-07-31T23:54:02.168Z,95437.00
2022-07-31T23:57:03.919Z,95435.47
